createdAt,value
2019-04-03T00:01:06.970Z,9
2019-04-03T00:06:12.304Z,9
2019-04-03T00:11:17.344Z,8.9
2019-04-03T00:16:22.558Z,8.8
2019-04-03T00:21:27.688Z,8.9
2019-04-03T00:26:32.868Z,8.9
2019-04-03T00:31:38.148Z,9
2019-04-03T00:36:43.725Z,9.1
2019-04-03T00:41:48.720Z,9.1
2019-04-03T00:46:56.446Z,8.9
2019-04-03T00:52:01.574Z,8.9
2019-04-03T00:57:06.936Z,8.9
2019-04-03T01:02:12.204Z,8.9
2019-04-03T01:07:13.567Z,8.8
2019-04-03T01:12:18.545Z,8.7
2019-04-03T01:17:24.390Z,8.6
2019-04-03T01:22:29.797Z,8.7
2019-04-03T01:27:35.242Z,8.6
2019-04-03T01:32:40.561Z,8.5
2019-04-03T01:37:47.802Z,8.4
2019-04-03T01:42:55.398Z,8.4
2019-04-03T01:48:00.588Z,8.3
2019-04-03T01:53:06.291Z,8.3
2019-04-03T01:58:12.417Z,8
2019-04-03T02:03:17.485Z,8
2019-04-03T02:08:23.298Z,7.9
2019-04-03T02:13:28.472Z,7.8
2019-04-03T02:18:34.171Z,7.7
2019-04-03T02:23:39.405Z,7.7
2019-04-03T02:28:45.163Z,7.7
2019-04-03T02:33:50.527Z,7.7
2019-04-03T02:38:56.740Z,7.7
2019-04-03T02:44:02.704Z,7.7
2019-04-03T02:49:12.227Z,7.6
2019-04-03T02:54:17.532Z,7.6
2019-04-03T02:59:28.007Z,7.5
2019-04-03T03:04:33.814Z,7.4
2019-04-03T03:09:39.616Z,7.4
2019-04-03T03:14:45.296Z,7.4
2019-04-03T03:19:50.585Z,7.2
2019-04-03T03:24:56.287Z,7.2
2019-04-03T03:30:55.367Z,7
2019-04-03T03:35:30.013Z,7
2019-04-03T03:40:18.547Z,7.1
2019-04-03T03:45:23.694Z,7
2019-04-03T03:50:31.744Z,7
2019-04-03T03:55:37.595Z,6.9
2019-04-03T04:00:44.081Z,6.9
2019-04-03T04:05:58.057Z,6.9
2019-04-03T04:10:52.343Z,6.9
2019-04-03T04:16:06.001Z,6.9
2019-04-03T04:21:01.735Z,6.9
2019-04-03T04:26:06.994Z,6.9
2019-04-03T04:31:14.435Z,6.9
2019-04-03T04:36:19.452Z,6.9
2019-04-03T04:41:26.914Z,7
2019-04-03T04:46:32.726Z,7.1
2019-04-03T04:51:38.081Z,7.1
2019-04-03T04:56:42.802Z,7.2
2019-04-03T05:01:50.618Z,7.2
2019-04-03T05:06:56.045Z,7.2
2019-04-03T05:12:04.430Z,7.3
2019-04-03T05:17:09.818Z,7.6
2019-04-03T05:22:16.036Z,8.2
2019-04-03T05:27:21.132Z,8.2
2019-04-03T05:32:27.075Z,8.5
2019-04-03T05:37:32.420Z,8.5
2019-04-03T05:42:38.308Z,8.8
2019-04-03T05:47:43.503Z,8.8
2019-04-03T05:52:48.780Z,8.9
2019-04-03T05:57:54.073Z,8.7
2019-04-03T06:02:59.929Z,8.9
2019-04-03T06:08:04.888Z,8.9
2019-04-03T06:13:11.091Z,9.2
2019-04-03T06:18:19.298Z,9.3
2019-04-03T06:23:24.830Z,9.3
2019-04-03T06:28:30.118Z,9.6
2019-04-03T06:33:38.107Z,10.2
2019-04-03T06:38:42.021Z,10.2
2019-04-03T06:43:55.358Z,10.2
2019-04-03T06:48:50.353Z,10.2
2019-04-03T06:53:55.857Z,10.5
2019-04-03T06:59:04.254Z,10.7
2019-04-03T07:04:10.353Z,11.1
2019-04-03T07:09:36.898Z,10.9
2019-04-03T07:14:25.595Z,10.5
2019-04-03T07:19:34.829Z,10.5
2019-04-03T07:24:33.946Z,10.8
2019-04-03T07:29:42.826Z,10.9
2019-04-03T07:34:44.440Z,10.9
2019-04-03T07:39:52.095Z,12.3
2019-04-03T07:44:57.429Z,12.3
2019-04-03T07:50:01.247Z,13.2
2019-04-03T07:55:05.329Z,13.8
2019-04-03T08:00:11.105Z,14.8
2019-04-03T08:05:16.358Z,14.8
2019-04-03T08:10:20.857Z,14.7
2019-04-03T08:15:27.066Z,15.7
2019-04-03T08:20:33.862Z,16.2
2019-04-03T08:25:42.093Z,15.4
2019-04-03T08:30:42.847Z,16.3
2019-04-03T08:35:48.048Z,16.3
2019-04-03T08:40:55.172Z,16.6
2019-04-03T08:46:00.610Z,16.5
2019-04-03T08:51:06.091Z,15.8
2019-04-03T08:56:10.983Z,18.9
2019-04-03T09:01:14.849Z,18.8
2019-04-03T09:06:22.141Z,21
2019-04-03T09:11:28.813Z,21.9
2019-04-03T09:16:34.673Z,21.1
2019-04-03T09:21:41.009Z,21.7
2019-04-03T09:26:46.394Z,21.7
2019-04-03T09:31:57.210Z,21.1
2019-04-03T09:36:53.217Z,21.1
2019-04-03T09:41:58.277Z,20.1
2019-04-03T09:47:05.444Z,19.6
2019-04-03T09:52:10.810Z,19.6
2019-04-03T10:02:22.257Z,20
2019-04-03T10:07:27.614Z,20
2019-04-03T10:12:36.143Z,20.5
2019-04-03T10:17:41.085Z,19.5
2019-04-03T10:22:47.320Z,22
2019-04-03T10:27:53.209Z,22
2019-04-03T10:33:02.064Z,22.1
2019-04-03T10:38:06.306Z,22.1
2019-04-03T10:43:12.862Z,23
2019-04-03T10:48:20.012Z,22.4
2019-04-03T10:53:25.341Z,22.4
2019-04-03T10:58:31.266Z,24.4
2019-04-03T11:03:37.084Z,24.1
2019-04-03T11:08:42.190Z,24.1
2019-04-03T11:13:47.728Z,24.6
2019-04-03T11:19:07.277Z,25.5
2019-04-03T11:24:04.369Z,24.6
2019-04-03T11:29:12.752Z,23.9
2019-04-03T11:34:20.327Z,24.6
2019-04-03T11:39:26.328Z,26.4
2019-04-03T11:44:31.847Z,26.4
2019-04-03T11:49:37.933Z,25.7
2019-04-03T11:54:43.004Z,25.9
2019-04-03T11:59:49.535Z,25.2
2019-04-03T12:04:55.567Z,25.1
2019-04-03T12:10:05.297Z,24.8
2019-04-03T12:20:17.800Z,22.2
2019-04-03T12:25:24.082Z,21.3
2019-04-03T12:30:30.401Z,21.7
2019-04-03T12:35:36.282Z,21.7
2019-04-03T12:40:42.245Z,21.6
2019-04-03T12:45:50.181Z,21.6
2019-04-03T12:50:54.775Z,20.7
2019-04-03T12:55:59.599Z,20.1
2019-04-03T13:01:05.679Z,20.2
2019-04-03T13:06:14.806Z,19.9
2019-04-03T13:11:22.416Z,20
2019-04-03T13:16:27.935Z,20
2019-04-03T13:21:33.824Z,20.5
2019-04-03T13:26:40.245Z,20
2019-04-03T13:31:48.718Z,19.5
2019-04-03T13:36:54.250Z,19.4
2019-04-03T13:42:00.512Z,19.8
2019-04-03T13:47:10.751Z,19.9
2019-04-03T13:52:16.316Z,19.9
2019-04-03T13:57:22.666Z,19.8
2019-04-03T14:02:28.414Z,19.8
2019-04-03T14:07:34.057Z,19.7
2019-04-03T14:12:46.649Z,19.6
2019-04-03T14:17:57.869Z,19.5
2019-04-03T14:22:44.096Z,19.5
2019-04-03T14:27:50.036Z,19.4
2019-04-03T14:32:56.885Z,19.2
2019-04-03T14:38:03.379Z,19.1
2019-04-03T14:43:09.937Z,19.1
2019-04-03T14:48:16.097Z,19.1
2019-04-03T14:53:23.542Z,19.2
2019-04-03T14:58:29.361Z,19.5
2019-04-03T15:03:37.084Z,19.4
2019-04-03T15:13:45.594Z,19.1
2019-04-03T15:18:54.670Z,19.1
2019-04-03T15:24:01.014Z,19
2019-04-03T15:29:07.151Z,19
2019-04-03T15:34:12.786Z,19
2019-04-03T15:39:19.468Z,18.9
2019-04-03T15:44:28.881Z,18.9
2019-04-03T15:49:35.493Z,18.8
2019-04-03T15:54:36.457Z,18.7
2019-04-03T15:59:42.119Z,18.7
2019-04-03T16:04:47.672Z,18.7
2019-04-03T16:09:53.724Z,18.5
2019-04-03T16:14:54.116Z,18.4
2019-04-03T16:20:02.239Z,18.3
2019-04-03T16:25:08.121Z,18.2
2019-04-03T16:30:20.606Z,18
2019-04-03T16:35:18.498Z,17.8
2019-04-03T16:40:27.164Z,17.7
2019-04-03T16:45:33.235Z,17.5
2019-04-03T16:50:44.045Z,17.3
2019-04-03T16:55:47.612Z,17.1
2019-04-03T17:00:53.717Z,16.9
2019-04-03T17:05:59.951Z,16.7
2019-04-03T17:11:05.477Z,16.6
2019-04-03T17:16:09.677Z,16.2
2019-04-03T17:21:16.414Z,16.2
2019-04-03T17:26:22.623Z,15.9
2019-04-03T17:36:32.358Z,15.7
2019-04-03T17:41:39.644Z,15.6
2019-04-03T17:46:44.437Z,15.5
2019-04-03T17:51:53.196Z,15.5
2019-04-03T17:56:58.388Z,15.5
2019-04-03T18:02:03.300Z,15.5
2019-04-03T18:07:08.536Z,15.4
2019-04-03T18:12:23.053Z,15.3
2019-04-03T18:17:19.170Z,15.2
2019-04-03T18:22:26.628Z,15.2
2019-04-03T18:27:34.528Z,15
2019-04-03T18:32:39.505Z,15
2019-04-03T18:37:44.649Z,14.8
2019-04-03T18:42:51.999Z,14.6
2019-04-03T18:47:57.245Z,14.6
2019-04-03T18:53:02.330Z,14.5
2019-04-03T18:58:07.393Z,14.4
2019-04-03T19:03:12.774Z,14.3
2019-04-03T19:08:20.764Z,14.2
2019-04-03T19:13:25.814Z,14.1
2019-04-03T19:18:31.817Z,14
2019-04-03T19:23:30.330Z,14
2019-04-03T19:28:36.804Z,13.8
2019-04-03T19:33:46.864Z,13.7
2019-04-03T19:38:45.574Z,13.7
2019-04-03T19:43:50.517Z,13.7
2019-04-03T19:48:58.429Z,13.5
2019-04-03T19:54:03.602Z,13.5
2019-04-03T19:59:08.903Z,13.4
2019-04-03T20:04:17.546Z,13.2
2019-04-03T20:09:22.907Z,13.2
2019-04-03T20:14:35.716Z,13
2019-04-03T20:19:30.719Z,13
2019-04-03T20:24:35.618Z,12.9
2019-04-03T20:29:40.791Z,12.9
2019-04-03T20:34:47.298Z,12.7
2019-04-03T20:39:51.037Z,12.7
2019-04-03T20:44:56.440Z,12.6
2019-04-03T20:50:07.905Z,12.5
2019-04-03T20:55:13.132Z,12.4
2019-04-03T21:00:21.164Z,12.3
2019-04-03T21:05:26.312Z,12.3
2019-04-03T21:10:33.651Z,12.2
2019-04-03T21:15:39.106Z,12.1
2019-04-03T21:20:44.180Z,12.1
2019-04-03T21:25:49.277Z,12
2019-04-03T21:30:56.536Z,11.8
2019-04-03T21:36:01.455Z,11.8
2019-04-03T21:41:06.512Z,11.8
2019-04-03T21:46:11.633Z,11.8
2019-04-03T21:51:16.983Z,11.8
2019-04-03T21:56:24.872Z,11.7
2019-04-03T22:01:30.076Z,11.6
2019-04-03T22:06:35.267Z,11.5
2019-04-03T22:11:40.823Z,11.4
2019-04-03T22:16:46.015Z,11.3
2019-04-03T22:21:51.487Z,11.2
2019-04-03T22:26:56.434Z,11.2
2019-04-03T22:32:01.761Z,11.2
2019-04-03T22:37:06.710Z,11.2
2019-04-03T22:42:15.822Z,11.2
2019-04-03T22:47:23.006Z,11.2
2019-04-03T22:52:30.332Z,11.1
2019-04-03T22:57:35.347Z,11.1
2019-04-03T23:02:40.422Z,11.1
2019-04-03T23:07:45.680Z,11.1
2019-04-03T23:12:49.714Z,11
2019-04-03T23:17:54.797Z,11
2019-04-03T23:22:59.839Z,11
2019-04-03T23:28:05.461Z,11
2019-04-03T23:33:09.417Z,11
2019-04-03T23:38:14.695Z,10.9
2019-04-03T23:43:20.427Z,10.8
2019-04-03T23:48:26.122Z,10.7
2019-04-03T23:53:33.895Z,10.7
2019-04-03T23:58:37.657Z,10.7
